sensor_id;sensor_type;location;lat;lon;timestamp;P1;durP1;ratioP1;P2;durP2;ratioP2
8574;SDS011;4325;42.520;27.448;2022-07-22T00:01:00;15.23;;;5.20;;
8574;SDS011;4325;42.520;27.448;2022-07-22T00:03:27;12.87;;;5.80;;
8574;SDS011;4325;42.520;27.448;2022-07-22T00:05:54;11.90;;;6.03;;
8574;SDS011;4325;42.520;27.448;2022-07-22T00:08:20;7.97;;;5.83;;
8574;SDS011;4325;42.520;27.448;2022-07-22T00:10:47;10.03;;;5.73;;
8574;SDS011;4325;42.520;27.448;2022-07-22T00:13:14;9.73;;;6.17;;
8574;SDS011;4325;42.520;27.448;2022-07-22T00:15:41;14.73;;;5.60;;
8574;SDS011;4325;42.520;27.448;2022-07-22T00:18:09;12.07;;;6.23;;
8574;SDS011;4325;42.520;27.448;2022-07-22T00:20:36;17.20;;;6.23;;
8574;SDS011;4325;42.520;27.448;2022-07-22T00:23:03;7.93;;;5.93;;
8574;SDS011;4325;42.520;27.448;2022-07-22T00:25:30;14.57;;;6.80;;
8574;SDS011;4325;42.520;27.448;2022-07-22T00:27:57;14.17;;;6.73;;
8574;SDS011;4325;42.520;27.448;2022-07-22T00:30:23;9.00;;;6.30;;
8574;SDS011;4325;42.520;27.448;2022-07-22T00:32:50;8.67;;;5.97;;
8574;SDS011;4325;42.520;27.448;2022-07-22T00:35:18;10.93;;;5.90;;
8574;SDS011;4325;42.520;27.448;2022-07-22T00:37:45;9.30;;;5.80;;
8574;SDS011;4325;42.520;27.448;2022-07-22T00:40:12;9.97;;;5.80;;
8574;SDS011;4325;42.520;27.448;2022-07-22T00:42:39;6.30;;;5.67;;
8574;SDS011;4325;42.520;27.448;2022-07-22T00:45:07;7.90;;;6.13;;
8574;SDS011;4325;42.520;27.448;2022-07-22T00:47:34;16.97;;;6.43;;
8574;SDS011;4325;42.520;27.448;2022-07-22T00:50:02;12.47;;;5.97;;
8574;SDS011;4325;42.520;27.448;2022-07-22T00:52:31;15.37;;;6.70;;
8574;SDS011;4325;42.520;27.448;2022-07-22T00:54:59;7.60;;;5.90;;
8574;SDS011;4325;42.520;27.448;2022-07-22T00:57:26;12.17;;;6.50;;
8574;SDS011;4325;42.520;27.448;2022-07-22T00:59:54;12.33;;;7.63;;
8574;SDS011;4325;42.520;27.448;2022-07-22T01:02:23;11.97;;;6.27;;
8574;SDS011;4325;42.520;27.448;2022-07-22T01:04:50;10.73;;;6.87;;
8574;SDS011;4325;42.520;27.448;2022-07-22T01:07:17;10.57;;;6.90;;
8574;SDS011;4325;42.520;27.448;2022-07-22T01:09:45;12.90;;;7.50;;
8574;SDS011;4325;42.520;27.448;2022-07-22T01:12:12;13.07;;;6.83;;
8574;SDS011;4325;42.520;27.448;2022-07-22T01:14:39;16.47;;;7.70;;
8574;SDS011;4325;42.520;27.448;2022-07-22T01:17:06;9.87;;;7.43;;
8574;SDS011;4325;42.520;27.448;2022-07-22T01:19:34;13.17;;;7.77;;
8574;SDS011;4325;42.520;27.448;2022-07-22T01:22:03;16.23;;;7.33;;
8574;SDS011;4325;42.520;27.448;2022-07-22T01:24:30;11.10;;;6.93;;
8574;SDS011;4325;42.520;27.448;2022-07-22T01:26:57;12.07;;;7.83;;
8574;SDS011;4325;42.520;27.448;2022-07-22T01:29:24;10.63;;;7.20;;
8574;SDS011;4325;42.520;27.448;2022-07-22T01:31:51;12.40;;;7.40;;
8574;SDS011;4325;42.520;27.448;2022-07-22T01:34:18;11.77;;;7.33;;
8574;SDS011;4325;42.520;27.448;2022-07-22T01:36:45;16.33;;;7.73;;
8574;SDS011;4325;42.520;27.448;2022-07-22T01:39:13;17.40;;;7.20;;
8574;SDS011;4325;42.520;27.448;2022-07-22T01:41:40;16.37;;;6.87;;
8574;SDS011;4325;42.520;27.448;2022-07-22T01:44:07;12.47;;;8.00;;
8574;SDS011;4325;42.520;27.448;2022-07-22T01:46:34;12.30;;;7.57;;
8574;SDS011;4325;42.520;27.448;2022-07-22T01:49:01;11.27;;;7.30;;
8574;SDS011;4325;42.520;27.448;2022-07-22T01:51:28;10.50;;;6.93;;
8574;SDS011;4325;42.520;27.448;2022-07-22T01:53:55;14.37;;;6.90;;
8574;SDS011;4325;42.520;27.448;2022-07-22T01:56:23;13.13;;;7.17;;
8574;SDS011;4325;42.520;27.448;2022-07-22T01:58:50;16.73;;;8.47;;
8574;SDS011;4325;42.520;27.448;2022-07-22T02:01:16;10.23;;;6.23;;
8574;SDS011;4325;42.520;27.448;2022-07-22T02:03:44;14.97;;;8.03;;
8574;SDS011;4325;42.520;27.448;2022-07-22T02:06:10;14.40;;;7.63;;
8574;SDS011;4325;42.520;27.448;2022-07-22T02:08:37;11.93;;;7.70;;
8574;SDS011;4325;42.520;27.448;2022-07-22T02:11:04;10.83;;;6.73;;
8574;SDS011;4325;42.520;27.448;2022-07-22T02:13:33;17.27;;;7.43;;
8574;SDS011;4325;42.520;27.448;2022-07-22T02:16:00;11.27;;;6.93;;
8574;SDS011;4325;42.520;27.448;2022-07-22T02:18:27;12.80;;;7.87;;
8574;SDS011;4325;42.520;27.448;2022-07-22T02:20:54;16.87;;;7.90;;
8574;SDS011;4325;42.520;27.448;2022-07-22T02:23:21;14.20;;;7.87;;
8574;SDS011;4325;42.520;27.448;2022-07-22T02:25:48;15.63;;;8.27;;
8574;SDS011;4325;42.520;27.448;2022-07-22T02:28:15;13.70;;;7.70;;
8574;SDS011;4325;42.520;27.448;2022-07-22T02:30:43;19.10;;;8.17;;
8574;SDS011;4325;42.520;27.448;2022-07-22T02:33:10;14.23;;;7.30;;
8574;SDS011;4325;42.520;27.448;2022-07-22T02:35:37;15.93;;;8.03;;
8574;SDS011;4325;42.520;27.448;2022-07-22T02:38:04;12.27;;;7.47;;
8574;SDS011;4325;42.520;27.448;2022-07-22T02:40:31;17.27;;;9.77;;
8574;SDS011;4325;42.520;27.448;2022-07-22T02:42:58;14.40;;;9.20;;
8574;SDS011;4325;42.520;27.448;2022-07-22T02:45:25;13.93;;;8.80;;
8574;SDS011;4325;42.520;27.448;2022-07-22T02:47:54;12.37;;;8.57;;
8574;SDS011;4325;42.520;27.448;2022-07-22T02:50:22;18.03;;;9.23;;
8574;SDS011;4325;42.520;27.448;2022-07-22T02:52:50;12.47;;;8.93;;
8574;SDS011;4325;42.520;27.448;2022-07-22T02:55:18;14.87;;;9.23;;
8574;SDS011;4325;42.520;27.448;2022-07-22T02:57:45;11.80;;;8.97;;
8574;SDS011;4325;42.520;27.448;2022-07-22T03:00:13;15.20;;;9.30;;
8574;SDS011;4325;42.520;27.448;2022-07-22T03:02:40;16.03;;;9.57;;
8574;SDS011;4325;42.520;27.448;2022-07-22T03:05:09;13.93;;;8.87;;
8574;SDS011;4325;42.520;27.448;2022-07-22T03:07:36;16.27;;;9.73;;
8574;SDS011;4325;42.520;27.448;2022-07-22T03:10:03;12.43;;;8.90;;
8574;SDS011;4325;42.520;27.448;2022-07-22T03:12:31;15.77;;;8.77;;
8574;SDS011;4325;42.520;27.448;2022-07-22T03:14:57;19.57;;;9.50;;
8574;SDS011;4325;42.520;27.448;2022-07-22T03:17:24;14.17;;;9.40;;
8574;SDS011;4325;42.520;27.448;2022-07-22T03:19:51;11.97;;;9.40;;
8574;SDS011;4325;42.520;27.448;2022-07-22T03:22:19;12.57;;;9.13;;
8574;SDS011;4325;42.520;27.448;2022-07-22T03:24:46;13.20;;;9.40;;
8574;SDS011;4325;42.520;27.448;2022-07-22T03:27:13;12.23;;;8.73;;
8574;SDS011;4325;42.520;27.448;2022-07-22T03:29:40;14.60;;;9.50;;
8574;SDS011;4325;42.520;27.448;2022-07-22T03:32:07;14.73;;;9.57;;
8574;SDS011;4325;42.520;27.448;2022-07-22T03:34:33;16.20;;;9.87;;
8574;SDS011;4325;42.520;27.448;2022-07-22T03:37:00;13.50;;;9.37;;
8574;SDS011;4325;42.520;27.448;2022-07-22T03:39:29;14.30;;;9.10;;
8574;SDS011;4325;42.520;27.448;2022-07-22T03:41:55;15.27;;;9.27;;
8574;SDS011;4325;42.520;27.448;2022-07-22T03:44:22;15.30;;;9.43;;
8574;SDS011;4325;42.520;27.448;2022-07-22T03:46:49;12.60;;;9.70;;
8574;SDS011;4325;42.520;27.448;2022-07-22T03:49:16;18.77;;;9.30;;
8574;SDS011;4325;42.520;27.448;2022-07-22T03:51:43;10.13;;;8.80;;
8574;SDS011;4325;42.520;27.448;2022-07-22T03:54:10;15.60;;;9.77;;
8574;SDS011;4325;42.520;27.448;2022-07-22T03:56:38;18.03;;;9.33;;
8574;SDS011;4325;42.520;27.448;2022-07-22T03:59:05;17.00;;;9.23;;
8574;SDS011;4325;42.520;27.448;2022-07-22T04:01:32;16.33;;;9.13;;
8574;SDS011;4325;42.520;27.448;2022-07-22T04:04:10;9.60;;;8.43;;
8574;SDS011;4325;42.520;27.448;2022-07-22T04:06:37;15.63;;;8.70;;
8574;SDS011;4325;42.520;27.448;2022-07-22T04:09:04;17.57;;;8.80;;
8574;SDS011;4325;42.520;27.448;2022-07-22T04:11:30;15.07;;;9.60;;
8574;SDS011;4325;42.520;27.448;2022-07-22T04:13:59;15.30;;;9.90;;
8574;SDS011;4325;42.520;27.448;2022-07-22T04:16:26;14.50;;;8.83;;
8574;SDS011;4325;42.520;27.448;2022-07-22T04:18:53;13.43;;;9.73;;
8574;SDS011;4325;42.520;27.448;2022-07-22T04:21:19;20.53;;;9.50;;
8574;SDS011;4325;42.520;27.448;2022-07-22T04:23:46;18.90;;;9.00;;
8574;SDS011;4325;42.520;27.448;2022-07-22T04:26:13;12.73;;;8.40;;
8574;SDS011;4325;42.520;27.448;2022-07-22T04:28:40;17.17;;;9.03;;
8574;SDS011;4325;42.520;27.448;2022-07-22T04:31:08;13.67;;;8.07;;
8574;SDS011;4325;42.520;27.448;2022-07-22T04:33:35;10.80;;;8.40;;
8574;SDS011;4325;42.520;27.448;2022-07-22T04:36:02;16.53;;;8.37;;
8574;SDS011;4325;42.520;27.448;2022-07-22T04:38:29;13.40;;;8.57;;
8574;SDS011;4325;42.520;27.448;2022-07-22T04:40:56;19.23;;;9.47;;
8574;SDS011;4325;42.520;27.448;2022-07-22T04:43:23;12.63;;;8.20;;
8574;SDS011;4325;42.520;27.448;2022-07-22T04:45:50;11.33;;;8.30;;
8574;SDS011;4325;42.520;27.448;2022-07-22T04:48:19;15.20;;;8.67;;
8574;SDS011;4325;42.520;27.448;2022-07-22T04:50:46;21.87;;;8.80;;
8574;SDS011;4325;42.520;27.448;2022-07-22T04:53:12;12.77;;;9.67;;
8574;SDS011;4325;42.520;27.448;2022-07-22T04:55:39;21.17;;;8.93;;
8574;SDS011;4325;42.520;27.448;2022-07-22T04:58:06;15.30;;;8.37;;
8574;SDS011;4325;42.520;27.448;2022-07-22T05:00:33;12.03;;;7.97;;
8574;SDS011;4325;42.520;27.448;2022-07-22T05:03:00;12.17;;;8.70;;
8574;SDS011;4325;42.520;27.448;2022-07-22T05:05:28;15.87;;;8.50;;
8574;SDS011;4325;42.520;27.448;2022-07-22T05:07:55;11.87;;;9.07;;
8574;SDS011;4325;42.520;27.448;2022-07-22T05:10:22;13.53;;;8.40;;
8574;SDS011;4325;42.520;27.448;2022-07-22T05:12:49;17.33;;;8.60;;
8574;SDS011;4325;42.520;27.448;2022-07-22T05:15:16;14.77;;;9.80;;
8574;SDS011;4325;42.520;27.448;2022-07-22T05:17:43;17.70;;;8.97;;
8574;SDS011;4325;42.520;27.448;2022-07-22T05:20:10;17.00;;;9.03;;
8574;SDS011;4325;42.520;27.448;2022-07-22T05:22:39;18.20;;;10.30;;
8574;SDS011;4325;42.520;27.448;2022-07-22T05:25:06;19.63;;;10.50;;
8574;SDS011;4325;42.520;27.448;2022-07-22T05:27:34;23.00;;;9.53;;
8574;SDS011;4325;42.520;27.448;2022-07-22T05:30:01;15.27;;;9.03;;
8574;SDS011;4325;42.520;27.448;2022-07-22T05:32:27;16.10;;;8.67;;
8574;SDS011;4325;42.520;27.448;2022-07-22T05:34:54;13.43;;;9.80;;
8574;SDS011;4325;42.520;27.448;2022-07-22T05:37:21;22.70;;;9.23;;
8574;SDS011;4325;42.520;27.448;2022-07-22T05:39:49;13.57;;;8.20;;
8574;SDS011;4325;42.520;27.448;2022-07-22T05:42:16;20.23;;;8.80;;
8574;SDS011;4325;42.520;27.448;2022-07-22T05:44:43;19.07;;;8.30;;
8574;SDS011;4325;42.520;27.448;2022-07-22T05:47:10;16.53;;;8.63;;
8574;SDS011;4325;42.520;27.448;2022-07-22T05:49:38;16.17;;;8.60;;
8574;SDS011;4325;42.520;27.448;2022-07-22T05:52:05;19.10;;;8.13;;
8574;SDS011;4325;42.520;27.448;2022-07-22T05:54:31;22.23;;;7.97;;
8574;SDS011;4325;42.520;27.448;2022-07-22T05:57:01;12.97;;;7.07;;
8574;SDS011;4325;42.520;27.448;2022-07-22T05:59:28;11.47;;;7.47;;
8574;SDS011;4325;42.520;27.448;2022-07-22T06:01:55;19.33;;;6.90;;
8574;SDS011;4325;42.520;27.448;2022-07-22T06:04:22;12.13;;;7.03;;
8574;SDS011;4325;42.520;27.448;2022-07-22T06:06:48;12.23;;;6.43;;
8574;SDS011;4325;42.520;27.448;2022-07-22T06:09:15;11.23;;;7.70;;
8574;SDS011;4325;42.520;27.448;2022-07-22T06:11:42;10.33;;;6.60;;
8574;SDS011;4325;42.520;27.448;2022-07-22T06:14:11;17.43;;;6.77;;
8574;SDS011;4325;42.520;27.448;2022-07-22T06:16:37;10.43;;;6.17;;
8574;SDS011;4325;42.520;27.448;2022-07-22T06:19:04;10.70;;;6.97;;
8574;SDS011;4325;42.520;27.448;2022-07-22T06:21:31;14.17;;;6.53;;
8574;SDS011;4325;42.520;27.448;2022-07-22T06:23:58;12.73;;;6.33;;
8574;SDS011;4325;42.520;27.448;2022-07-22T06:26:25;13.67;;;7.30;;
8574;SDS011;4325;42.520;27.448;2022-07-22T06:28:52;11.53;;;7.67;;
8574;SDS011;4325;42.520;27.448;2022-07-22T06:31:20;12.97;;;7.90;;
8574;SDS011;4325;42.520;27.448;2022-07-22T06:33:47;8.70;;;7.73;;
8574;SDS011;4325;42.520;27.448;2022-07-22T06:36:14;11.40;;;7.87;;
8574;SDS011;4325;42.520;27.448;2022-07-22T06:38:42;15.00;;;7.73;;
8574;SDS011;4325;42.520;27.448;2022-07-22T06:41:09;11.13;;;6.90;;
8574;SDS011;4325;42.520;27.448;2022-07-22T06:43:36;10.20;;;7.10;;
8574;SDS011;4325;42.520;27.448;2022-07-22T06:46:03;10.17;;;6.90;;
8574;SDS011;4325;42.520;27.448;2022-07-22T06:48:32;13.80;;;7.97;;
8574;SDS011;4325;42.520;27.448;2022-07-22T06:50:59;16.17;;;7.00;;
8574;SDS011;4325;42.520;27.448;2022-07-22T06:53:25;15.97;;;7.13;;
8574;SDS011;4325;42.520;27.448;2022-07-22T06:55:52;14.90;;;7.63;;
8574;SDS011;4325;42.520;27.448;2022-07-22T06:58:19;11.17;;;7.07;;
8574;SDS011;4325;42.520;27.448;2022-07-22T07:00:46;12.40;;;7.03;;
8574;SDS011;4325;42.520;27.448;2022-07-22T07:03:13;12.20;;;6.53;;
8574;SDS011;4325;42.520;27.448;2022-07-22T07:05:41;14.63;;;7.40;;
8574;SDS011;4325;42.520;27.448;2022-07-22T07:08:08;12.20;;;6.77;;
8574;SDS011;4325;42.520;27.448;2022-07-22T07:10:35;8.37;;;7.10;;
8574;SDS011;4325;42.520;27.448;2022-07-22T07:13:02;9.80;;;6.77;;
8574;SDS011;4325;42.520;27.448;2022-07-22T07:15:29;12.93;;;7.10;;
8574;SDS011;4325;42.520;27.448;2022-07-22T07:17:56;11.67;;;6.77;;
8574;SDS011;4325;42.520;27.448;2022-07-22T07:20:23;11.50;;;6.10;;
8574;SDS011;4325;42.520;27.448;2022-07-22T07:22:51;9.93;;;6.37;;
8574;SDS011;4325;42.520;27.448;2022-07-22T07:25:18;10.60;;;7.13;;
8574;SDS011;4325;42.520;27.448;2022-07-22T07:27:46;12.80;;;6.70;;
8574;SDS011;4325;42.520;27.448;2022-07-22T07:30:13;11.80;;;6.63;;
8574;SDS011;4325;42.520;27.448;2022-07-22T07:32:40;7.67;;;6.10;;
8574;SDS011;4325;42.520;27.448;2022-07-22T07:35:07;7.77;;;6.17;;
8574;SDS011;4325;42.520;27.448;2022-07-22T07:37:34;14.43;;;6.43;;
8574;SDS011;4325;42.520;27.448;2022-07-22T07:40:03;10.53;;;5.93;;
8574;SDS011;4325;42.520;27.448;2022-07-22T07:42:30;10.47;;;6.77;;
8574;SDS011;4325;42.520;27.448;2022-07-22T07:44:57;18.83;;;6.53;;
8574;SDS011;4325;42.520;27.448;2022-07-22T07:47:24;8.60;;;5.87;;
8574;SDS011;4325;42.520;27.448;2022-07-22T07:49:51;20.10;;;6.20;;
8574;SDS011;4325;42.520;27.448;2022-07-22T07:52:18;20.47;;;7.10;;
8574;SDS011;4325;42.520;27.448;2022-07-22T07:54:45;13.43;;;6.13;;
8574;SDS011;4325;42.520;27.448;2022-07-22T07:57:14;9.97;;;5.70;;
8574;SDS011;4325;42.520;27.448;2022-07-22T07:59:41;8.10;;;5.67;;
8574;SDS011;4325;42.520;27.448;2022-07-22T08:02:08;8.60;;;5.67;;
8574;SDS011;4325;42.520;27.448;2022-07-22T08:04:35;7.67;;;5.47;;
8574;SDS011;4325;42.520;27.448;2022-07-22T08:07:02;13.03;;;5.60;;
8574;SDS011;4325;42.520;27.448;2022-07-22T08:09:29;8.87;;;6.23;;
8574;SDS011;4325;42.520;27.448;2022-07-22T08:11:56;9.50;;;5.70;;
8574;SDS011;4325;42.520;27.448;2022-07-22T08:14:25;6.93;;;5.33;;
8574;SDS011;4325;42.520;27.448;2022-07-22T08:16:52;10.97;;;5.63;;
8574;SDS011;4325;42.520;27.448;2022-07-22T08:19:19;8.03;;;5.67;;
8574;SDS011;4325;42.520;27.448;2022-07-22T08:21:46;5.20;;;4.70;;
8574;SDS011;4325;42.520;27.448;2022-07-22T08:24:12;11.77;;;5.47;;
8574;SDS011;4325;42.520;27.448;2022-07-22T08:26:39;6.87;;;6.17;;
8574;SDS011;4325;42.520;27.448;2022-07-22T08:29:06;9.60;;;4.80;;
8574;SDS011;4325;42.520;27.448;2022-07-22T08:31:36;8.57;;;4.43;;
8574;SDS011;4325;42.520;27.448;2022-07-22T08:34:03;6.33;;;4.40;;
8574;SDS011;4325;42.520;27.448;2022-07-22T08:36:31;11.83;;;4.67;;
8574;SDS011;4325;42.520;27.448;2022-07-22T08:38:58;8.53;;;4.70;;
8574;SDS011;4325;42.520;27.448;2022-07-22T08:41:26;7.03;;;5.20;;
8574;SDS011;4325;42.520;27.448;2022-07-22T08:43:53;12.17;;;5.30;;
8574;SDS011;4325;42.520;27.448;2022-07-22T08:46:20;7.80;;;5.20;;
8574;SDS011;4325;42.520;27.448;2022-07-22T08:48:48;9.47;;;5.00;;
8574;SDS011;4325;42.520;27.448;2022-07-22T08:51:15;14.93;;;5.20;;
8574;SDS011;4325;42.520;27.448;2022-07-22T08:53:42;12.97;;;5.37;;
8574;SDS011;4325;42.520;27.448;2022-07-22T08:56:10;11.77;;;5.40;;
8574;SDS011;4325;42.520;27.448;2022-07-22T08:58:39;14.00;;;5.60;;
8574;SDS011;4325;42.520;27.448;2022-07-22T09:01:07;7.83;;;5.30;;
8574;SDS011;4325;42.520;27.448;2022-07-22T09:03:43;7.73;;;5.43;;
8574;SDS011;4325;42.520;27.448;2022-07-22T09:06:13;10.70;;;4.93;;
8574;SDS011;4325;42.520;27.448;2022-07-22T09:08:50;8.73;;;4.97;;
8574;SDS011;4325;42.520;27.448;2022-07-22T09:11:18;9.00;;;4.87;;
8574;SDS011;4325;42.520;27.448;2022-07-22T09:13:46;9.60;;;5.07;;
8574;SDS011;4325;42.520;27.448;2022-07-22T09:16:14;13.70;;;4.97;;
8574;SDS011;4325;42.520;27.448;2022-07-22T09:18:45;10.47;;;4.63;;
8574;SDS011;4325;42.520;27.448;2022-07-22T09:21:14;6.73;;;4.83;;
8574;SDS011;4325;42.520;27.448;2022-07-22T09:23:42;13.20;;;4.27;;
8574;SDS011;4325;42.520;27.448;2022-07-22T09:26:11;5.53;;;3.53;;
8574;SDS011;4325;42.520;27.448;2022-07-22T09:28:56;5.57;;;3.43;;
8574;SDS011;4325;42.520;27.448;2022-07-22T09:31:24;6.57;;;3.03;;
8574;SDS011;4325;42.520;27.448;2022-07-22T09:33:52;5.03;;;3.00;;
8574;SDS011;4325;42.520;27.448;2022-07-22T09:36:21;8.33;;;2.93;;
8574;SDS011;4325;42.520;27.448;2022-07-22T09:38:48;6.47;;;3.10;;
8574;SDS011;4325;42.520;27.448;2022-07-22T09:41:16;5.05;;;3.20;;
8574;SDS011;4325;42.520;27.448;2022-07-22T09:43:43;10.10;;;3.58;;
8574;SDS011;4325;42.520;27.448;2022-07-22T09:46:11;5.43;;;3.08;;
8574;SDS011;4325;42.520;27.448;2022-07-22T09:48:38;8.95;;;4.28;;
8574;SDS011;4325;42.520;27.448;2022-07-22T09:51:07;10.77;;;3.45;;
8574;SDS011;4325;42.520;27.448;2022-07-22T09:53:35;5.57;;;4.07;;
8574;SDS011;4325;42.520;27.448;2022-07-22T09:56:03;8.23;;;3.30;;
8574;SDS011;4325;42.520;27.448;2022-07-22T09:58:31;7.97;;;3.28;;
8574;SDS011;4325;42.520;27.448;2022-07-22T10:00:59;7.47;;;3.45;;
8574;SDS011;4325;42.520;27.448;2022-07-22T10:03:28;8.50;;;3.42;;
8574;SDS011;4325;42.520;27.448;2022-07-22T10:05:57;6.40;;;3.30;;
8574;SDS011;4325;42.520;27.448;2022-07-22T10:08:25;5.40;;;2.78;;
8574;SDS011;4325;42.520;27.448;2022-07-22T10:10:54;5.72;;;2.67;;
8574;SDS011;4325;42.520;27.448;2022-07-22T10:13:27;10.15;;;3.40;;
8574;SDS011;4325;42.520;27.448;2022-07-22T10:15:54;7.25;;;3.10;;
8574;SDS011;4325;42.520;27.448;2022-07-22T10:18:22;8.10;;;3.17;;
8574;SDS011;4325;42.520;27.448;2022-07-22T10:21:00;6.82;;;3.70;;
8574;SDS011;4325;42.520;27.448;2022-07-22T10:23:28;3.83;;;2.53;;
8574;SDS011;4325;42.520;27.448;2022-07-22T10:25:57;8.77;;;3.55;;
8574;SDS011;4325;42.520;27.448;2022-07-22T10:28:26;6.78;;;2.90;;
8574;SDS011;4325;42.520;27.448;2022-07-22T10:31:07;6.10;;;2.20;;
8574;SDS011;4325;42.520;27.448;2022-07-22T10:33:44;6.43;;;2.40;;
8574;SDS011;4325;42.520;27.448;2022-07-22T10:36:21;4.40;;;2.30;;
8574;SDS011;4325;42.520;27.448;2022-07-22T10:39:06;4.30;;;2.42;;
8574;SDS011;4325;42.520;27.448;2022-07-22T10:41:36;5.15;;;2.60;;
8574;SDS011;4325;42.520;27.448;2022-07-22T10:44:04;5.60;;;2.83;;
8574;SDS011;4325;42.520;27.448;2022-07-22T10:46:47;2.88;;;2.22;;
8574;SDS011;4325;42.520;27.448;2022-07-22T10:49:16;5.38;;;2.60;;
8574;SDS011;4325;42.520;27.448;2022-07-22T10:57:36;5.22;;;2.30;;
8574;SDS011;4325;42.520;27.448;2022-07-22T11:00:03;6.20;;;2.65;;
8574;SDS011;4325;42.520;27.448;2022-07-22T11:02:31;6.10;;;3.05;;
8574;SDS011;4325;42.520;27.448;2022-07-22T11:05:00;4.80;;;2.60;;
8574;SDS011;4325;42.520;27.448;2022-07-22T11:07:27;3.45;;;2.50;;
8574;SDS011;4325;42.520;27.448;2022-07-22T11:10:07;13.18;;;3.55;;
8574;SDS011;4325;42.520;27.448;2022-07-22T11:12:36;7.35;;;2.63;;
8574;SDS011;4325;42.520;27.448;2022-07-22T11:15:04;3.65;;;2.10;;
8574;SDS011;4325;42.520;27.448;2022-07-22T11:17:32;6.45;;;2.78;;
8574;SDS011;4325;42.520;27.448;2022-07-22T11:20:00;8.75;;;3.17;;
8574;SDS011;4325;42.520;27.448;2022-07-22T11:22:27;6.22;;;2.42;;
8574;SDS011;4325;42.520;27.448;2022-07-22T11:24:54;8.80;;;3.28;;
8574;SDS011;4325;42.520;27.448;2022-07-22T11:27:22;15.18;;;3.58;;
8574;SDS011;4325;42.520;27.448;2022-07-22T11:29:51;5.20;;;3.10;;
8574;SDS011;4325;42.520;27.448;2022-07-22T11:32:19;5.47;;;2.90;;
8574;SDS011;4325;42.520;27.448;2022-07-22T11:34:49;6.13;;;3.40;;
8574;SDS011;4325;42.520;27.448;2022-07-22T11:37:17;3.92;;;3.08;;
8574;SDS011;4325;42.520;27.448;2022-07-22T11:39:45;14.13;;;3.00;;
8574;SDS011;4325;42.520;27.448;2022-07-22T11:42:12;9.18;;;2.70;;
8574;SDS011;4325;42.520;27.448;2022-07-22T11:44:39;6.47;;;2.63;;
8574;SDS011;4325;42.520;27.448;2022-07-22T11:47:08;6.60;;;3.88;;
8574;SDS011;4325;42.520;27.448;2022-07-22T11:49:37;3.80;;;2.55;;
8574;SDS011;4325;42.520;27.448;2022-07-22T11:52:05;9.98;;;2.85;;
8574;SDS011;4325;42.520;27.448;2022-07-22T11:54:37;4.85;;;2.78;;
8574;SDS011;4325;42.520;27.448;2022-07-22T11:57:04;5.75;;;3.20;;
8574;SDS011;4325;42.520;27.448;2022-07-22T11:59:32;8.05;;;3.20;;
8574;SDS011;4325;42.520;27.448;2022-07-22T12:01:59;7.88;;;2.75;;
8574;SDS011;4325;42.520;27.448;2022-07-22T12:04:28;4.28;;;2.63;;
8574;SDS011;4325;42.520;27.448;2022-07-22T12:06:57;7.63;;;2.70;;
8574;SDS011;4325;42.520;27.448;2022-07-22T12:09:26;5.03;;;3.08;;
8574;SDS011;4325;42.520;27.448;2022-07-22T12:11:57;5.45;;;2.92;;
8574;SDS011;4325;42.520;27.448;2022-07-22T12:14:24;5.13;;;2.92;;
8574;SDS011;4325;42.520;27.448;2022-07-22T12:16:53;7.85;;;2.55;;
8574;SDS011;4325;42.520;27.448;2022-07-22T12:19:21;9.43;;;3.55;;
8574;SDS011;4325;42.520;27.448;2022-07-22T12:21:52;12.18;;;3.38;;
8574;SDS011;4325;42.520;27.448;2022-07-22T12:24:27;8.63;;;3.55;;
8574;SDS011;4325;42.520;27.448;2022-07-22T12:26:56;7.93;;;3.55;;
8574;SDS011;4325;42.520;27.448;2022-07-22T12:29:24;5.70;;;3.10;;
8574;SDS011;4325;42.520;27.448;2022-07-22T12:31:53;5.80;;;3.00;;
8574;SDS011;4325;42.520;27.448;2022-07-22T12:34:32;8.55;;;3.00;;
8574;SDS011;4325;42.520;27.448;2022-07-22T12:37:10;4.40;;;2.88;;
8574;SDS011;4325;42.520;27.448;2022-07-22T12:39:39;5.03;;;3.28;;
8574;SDS011;4325;42.520;27.448;2022-07-22T12:42:15;7.03;;;3.00;;
8574;SDS011;4325;42.520;27.448;2022-07-22T12:44:50;8.90;;;3.45;;
8574;SDS011;4325;42.520;27.448;2022-07-22T12:50:15;7.93;;;3.20;;
8574;SDS011;4325;42.520;27.448;2022-07-22T12:52:51;7.70;;;3.33;;
8574;SDS011;4325;42.520;27.448;2022-07-22T12:55:20;6.05;;;2.97;;
8574;SDS011;4325;42.520;27.448;2022-07-22T12:57:47;6.07;;;3.42;;
8574;SDS011;4325;42.520;27.448;2022-07-22T13:00:18;8.45;;;3.10;;
8574;SDS011;4325;42.520;27.448;2022-07-22T13:02:45;5.75;;;2.63;;
8574;SDS011;4325;42.520;27.448;2022-07-22T13:05:12;3.92;;;3.33;;
8574;SDS011;4325;42.520;27.448;2022-07-22T13:07:40;10.43;;;3.33;;
8574;SDS011;4325;42.520;27.448;2022-07-22T13:10:09;9.02;;;2.63;;
8574;SDS011;4325;42.520;27.448;2022-07-22T13:12:37;5.63;;;2.45;;
8574;SDS011;4325;42.520;27.448;2022-07-22T13:15:04;6.20;;;2.75;;
8574;SDS011;4325;42.520;27.448;2022-07-22T13:17:31;3.70;;;2.30;;
8574;SDS011;4325;42.520;27.448;2022-07-22T13:19:58;6.72;;;2.45;;
8574;SDS011;4325;42.520;27.448;2022-07-22T13:22:25;6.70;;;2.45;;
8574;SDS011;4325;42.520;27.448;2022-07-22T13:24:52;2.97;;;2.30;;
8574;SDS011;4325;42.520;27.448;2022-07-22T13:27:20;10.50;;;2.63;;
8574;SDS011;4325;42.520;27.448;2022-07-22T13:29:47;10.05;;;2.70;;
8574;SDS011;4325;42.520;27.448;2022-07-22T13:32:14;6.43;;;2.67;;
8574;SDS011;4325;42.520;27.448;2022-07-22T13:34:41;3.67;;;2.40;;
8574;SDS011;4325;42.520;27.448;2022-07-22T13:37:08;15.77;;;2.75;;
8574;SDS011;4325;42.520;27.448;2022-07-22T13:39:35;9.18;;;2.50;;
8574;SDS011;4325;42.520;27.448;2022-07-22T13:42:02;7.95;;;2.40;;
8574;SDS011;4325;42.520;27.448;2022-07-22T13:44:30;5.47;;;2.10;;
8574;SDS011;4325;42.520;27.448;2022-07-22T13:47:00;7.55;;;2.22;;
8574;SDS011;4325;42.520;27.448;2022-07-22T13:49:27;4.57;;;2.40;;
8574;SDS011;4325;42.520;27.448;2022-07-22T13:51:54;11.52;;;2.55;;
8574;SDS011;4325;42.520;27.448;2022-07-22T13:54:21;7.15;;;2.95;;
8574;SDS011;4325;42.520;27.448;2022-07-22T13:56:48;8.75;;;2.92;;
8574;SDS011;4325;42.520;27.448;2022-07-22T13:59:15;9.43;;;3.00;;
8574;SDS011;4325;42.520;27.448;2022-07-22T14:01:44;8.32;;;2.40;;
8574;SDS011;4325;42.520;27.448;2022-07-22T14:04:11;4.95;;;2.33;;
8574;SDS011;4325;42.520;27.448;2022-07-22T14:06:38;6.22;;;2.30;;
8574;SDS011;4325;42.520;27.448;2022-07-22T14:09:05;8.38;;;2.72;;
8574;SDS011;4325;42.520;27.448;2022-07-22T14:11:31;6.95;;;2.38;;
8574;SDS011;4325;42.520;27.448;2022-07-22T14:13:58;9.68;;;2.97;;
8574;SDS011;4325;42.520;27.448;2022-07-22T14:16:25;3.78;;;2.40;;
8574;SDS011;4325;42.520;27.448;2022-07-22T14:19:03;6.40;;;2.30;;
8574;SDS011;4325;42.520;27.448;2022-07-22T14:21:32;8.07;;;2.50;;
8574;SDS011;4325;42.520;27.448;2022-07-22T14:24:00;5.10;;;2.38;;
8574;SDS011;4325;42.520;27.448;2022-07-22T14:26:27;7.03;;;2.60;;
8574;SDS011;4325;42.520;27.448;2022-07-22T14:28:54;6.35;;;2.42;;
8574;SDS011;4325;42.520;27.448;2022-07-22T14:31:21;4.72;;;2.10;;
8574;SDS011;4325;42.520;27.448;2022-07-22T14:33:48;5.23;;;2.00;;
8574;SDS011;4325;42.520;27.448;2022-07-22T14:36:16;10.37;;;2.40;;
8574;SDS011;4325;42.520;27.448;2022-07-22T14:38:44;6.80;;;2.50;;
8574;SDS011;4325;42.520;27.448;2022-07-22T14:41:11;6.53;;;2.30;;
8574;SDS011;4325;42.520;27.448;2022-07-22T14:43:38;8.93;;;2.53;;
8574;SDS011;4325;42.520;27.448;2022-07-22T14:46:05;7.77;;;3.00;;
8574;SDS011;4325;42.520;27.448;2022-07-22T14:48:34;8.30;;;2.73;;
8574;SDS011;4325;42.520;27.448;2022-07-22T14:51:02;9.10;;;2.73;;
8574;SDS011;4325;42.520;27.448;2022-07-22T14:53:30;11.93;;;2.30;;
8574;SDS011;4325;42.520;27.448;2022-07-22T14:55:58;5.70;;;2.67;;
8574;SDS011;4325;42.520;27.448;2022-07-22T14:58:25;5.43;;;2.60;;
8574;SDS011;4325;42.520;27.448;2022-07-22T15:00:52;5.60;;;2.40;;
8574;SDS011;4325;42.520;27.448;2022-07-22T15:03:19;12.57;;;2.30;;
8574;SDS011;4325;42.520;27.448;2022-07-22T15:05:46;5.97;;;2.80;;